MXA720 SEQM-SKBO
Flight info
| Callsign | MXA720 |
|---|---|
| Flight time | N/A |
| Altitude | 28000 |
| Route | ARNOK3A ARNOK UP533 BOKAN DCT ESARO/N0453F390 DCT GIR GIR5W |
| Aircraft | A20N/M-SDE2E3FGHIRWXY/LB1 |
Departure
| Time | 2026-04-28 21:22 |
|---|---|
| Airport | Mariscal Sucre International Airport (SEQM) |
Arrival
| Time | N/A |
|---|---|
| Airport | El Dorado International Airport (SKBO) |
| Time | Latitude | Longitude | Altitude | Speed | Heading |
|---|---|---|---|---|---|
| 2026-04-28 20:44 | -0.12729 | -78.35930 | 7844 ft | 0 kts | 268° |
| 2026-04-28 21:04 | -0.12729 | -78.35923 | 7838 ft | 1 kts | 268° |
| 2026-04-28 21:04 | -0.12729 | -78.35915 | 7840 ft | 1 kts | 268° |
| 2026-04-28 21:05 | -0.12729 | -78.35907 | 7838 ft | 1 kts | 268° |
| 2026-04-28 21:05 | -0.12728 | -78.35900 | 7841 ft | 1 kts | 268° |
| 2026-04-28 21:05 | -0.12728 | -78.35894 | 7844 ft | 0 kts | 268° |
| 2026-04-28 21:08 | -0.12728 | -78.35893 | 7844 ft | 0 kts | 268° |
| 2026-04-28 21:08 | -0.12725 | -78.35864 | 7845 ft | 4 kts | 252° |
| 2026-04-28 21:09 | -0.12723 | -78.35860 | 7845 ft | 3 kts | 250° |
| 2026-04-28 21:09 | -0.12714 | -78.35840 | 7834 ft | 3 kts | 230° |
| 2026-04-28 21:09 | -0.12697 | -78.35826 | 7834 ft | 3 kts | 202° |
| 2026-04-28 21:09 | -0.12691 | -78.35823 | 7838 ft | 0 kts | 194° |
| 2026-04-28 21:11 | -0.12696 | -78.35824 | 7837 ft | 0 kts | 193° |
| 2026-04-28 21:12 | -0.12737 | -78.35811 | 7846 ft | 7 kts | 132° |
| 2026-04-28 21:12 | -0.12743 | -78.35748 | 7851 ft | 11 kts | 86° |
| 2026-04-28 21:12 | -0.12705 | -78.35649 | 7852 ft | 19 kts | 70° |
| 2026-04-28 21:12 | -0.12720 | -78.35604 | 7859 ft | 1 kts | 163° |
| 2026-04-28 21:13 | -0.12808 | -78.35604 | 7865 ft | 20 kts | 185° |
| 2026-04-28 21:13 | -0.12856 | -78.35633 | 7866 ft | 3 kts | 238° |
| 2026-04-28 21:13 | -0.12957 | -78.35711 | 7862 ft | 15 kts | 182° |
| 2026-04-28 21:13 | -0.13049 | -78.35640 | 7874 ft | 26 kts | 143° |
| 2026-04-28 21:14 | -0.13133 | -78.35558 | 7880 ft | 10 kts | 197° |
| 2026-04-28 21:14 | -0.13217 | -78.35573 | 7883 ft | 16 kts | 177° |
| 2026-04-28 21:14 | -0.13360 | -78.35592 | 7884 ft | 24 kts | 186° |
| 2026-04-28 21:14 | -0.13514 | -78.35594 | 7888 ft | 19 kts | 165° |
| 2026-04-28 21:15 | -0.13616 | -78.35542 | 7892 ft | 13 kts | 163° |
| 2026-04-28 21:15 | -0.13690 | -78.35560 | 7901 ft | 11 kts | 194° |
| 2026-04-28 21:15 | -0.13763 | -78.35578 | 7896 ft | 11 kts | 193° |
| 2026-04-28 21:15 | -0.13837 | -78.35589 | 7898 ft | 9 kts | 178° |
| 2026-04-28 21:16 | -0.13883 | -78.35569 | 7898 ft | 11 kts | 160° |
| 2026-04-28 21:16 | -0.14027 | -78.35538 | 7906 ft | 30 kts | 173° |
| 2026-04-28 21:16 | -0.14140 | -78.35528 | 7915 ft | 7 kts | 178° |
| 2026-04-28 21:16 | -0.14227 | -78.35521 | 7914 ft | 16 kts | 162° |
| 2026-04-28 21:17 | -0.14252 | -78.35486 | 7916 ft | 0 kts | 112° |
| 2026-04-28 21:20 | -0.14255 | -78.35457 | 7915 ft | 8 kts | 90° |
| 2026-04-28 21:20 | -0.14232 | -78.35384 | 7915 ft | 14 kts | 44° |
| 2026-04-28 21:20 | -0.14153 | -78.35368 | 7908 ft | 0 kts | 1° |
| 2026-04-28 21:21 | -0.14130 | -78.35367 | 7910 ft | 22 kts | 1° |
| 2026-04-28 21:21 | -0.13720 | -78.35394 | 7894 ft | 93 kts | 357° |
| 2026-04-28 21:21 | -0.12870 | -78.35426 | 7870 ft | 148 kts | 358° |
| 2026-04-28 21:22 | -0.11770 | -78.35436 | 8354 ft | 146 kts | 360° |
| 2026-04-28 21:22 | -0.10772 | -78.35277 | 8838 ft | 161 kts | 9° |
| 2026-04-28 21:22 | -0.09708 | -78.34897 | 9343 ft | 155 kts | 20° |
| 2026-04-28 21:22 | -0.08803 | -78.34432 | 10220 ft | 146 kts | 21° |
| 2026-04-28 21:23 | -0.07828 | -78.33939 | 10582 ft | 166 kts | 20° |
| 2026-04-28 21:23 | -0.06803 | -78.33432 | 11266 ft | 159 kts | 21° |
| 2026-04-28 21:23 | -0.05833 | -78.32953 | 11938 ft | 155 kts | 22° |
| 2026-04-28 21:23 | -0.04837 | -78.32466 | 12404 ft | 163 kts | 22° |
| 2026-04-28 21:24 | -0.03814 | -78.31975 | 12976 ft | 163 kts | 23° |
| 2026-04-28 21:24 | -0.02791 | -78.31491 | 13595 ft | 162 kts | 27° |
| 2026-04-28 21:24 | -0.01634 | -78.31509 | 13925 ft | 187 kts | 329° |
| 2026-04-28 21:24 | -0.00776 | -78.32517 | 14368 ft | 193 kts | 284° |
| 2026-04-28 21:25 | -0.00216 | -78.33713 | 14765 ft | 199 kts | 318° |
| 2026-04-28 21:25 | 0.01004 | -78.34259 | 15140 ft | 189 kts | 6° |
| 2026-04-28 21:25 | 0.02128 | -78.33798 | 15647 ft | 172 kts | 53° |
| 2026-04-28 21:25 | 0.03165 | -78.33181 | 15996 ft | 183 kts | 29° |
| 2026-04-28 21:26 | 0.04522 | -78.33072 | 15971 ft | 206 kts | 13° |
| 2026-04-28 21:26 | 0.05885 | -78.33004 | 16198 ft | 195 kts | 51° |
| 2026-04-28 21:26 | 0.06289 | -78.32303 | 11536 ft | 169 kts | 162° |
| 2026-04-28 21:26 | 0.05863 | -78.32135 | 9979 ft | 0 kts | 158° |